createdAt,value
2023-02-14T00:00:47.892Z,11.77
2023-02-14T00:03:50.520Z,12.57
2023-02-14T00:06:53.124Z,12.47
2023-02-14T00:09:55.698Z,12.37
2023-02-14T00:12:58.391Z,11.33
2023-02-14T00:16:01.425Z,12.10
2023-02-14T00:19:04.704Z,12.27
2023-02-14T00:22:07.470Z,12.15
2023-02-14T00:25:11.170Z,11.33
2023-02-14T00:28:13.832Z,11.52
2023-02-14T00:31:17.842Z,12.57
2023-02-14T00:34:20.938Z,11.67
2023-02-14T00:37:24.235Z,11.75
2023-02-14T00:40:26.809Z,11.40
2023-02-14T00:43:29.394Z,11.60
2023-02-14T00:46:33.533Z,12.50
2023-02-14T00:49:36.432Z,11.37
2023-02-14T00:52:39.112Z,11.40
2023-02-14T00:55:41.873Z,10.73
2023-02-14T00:58:44.811Z,11.87
2023-02-14T01:01:48.850Z,11.60
2023-02-14T01:04:51.858Z,10.73
2023-02-14T01:07:54.510Z,11.20
2023-02-14T01:10:57.468Z,11.63
2023-02-14T01:14:00.412Z,11.15
2023-02-14T01:17:04.763Z,11.37
2023-02-14T01:20:09.019Z,12.10
2023-02-14T01:23:11.708Z,11.97
2023-02-14T01:26:14.982Z,11.80
2023-02-14T01:29:17.643Z,12.63
2023-02-14T01:32:21.611Z,11.50
2023-02-14T01:35:25.523Z,12.67
2023-02-14T01:41:33.403Z,12.03
2023-02-14T01:45:02.625Z,11.67
2023-02-14T01:48:06.610Z,10.97
2023-02-14T01:51:09.369Z,11.03
2023-02-14T01:54:12.392Z,11.90
2023-02-14T01:57:17.285Z,12.02
2023-02-14T02:00:38.791Z,12.30
2023-02-14T02:03:45.792Z,10.47
2023-02-14T02:06:52.338Z,11.10
2023-02-14T02:09:57.070Z,13.70
2023-02-14T02:13:02.923Z,12.00
2023-02-14T02:16:27.163Z,11.63
2023-02-14T02:20:11.409Z,13.00
2023-02-14T02:23:40.347Z,11.07
2023-02-14T02:27:21.398Z,12.80
2023-02-14T02:30:44.078Z,13.30
2023-02-14T02:34:22.094Z,13.40
2023-02-14T02:37:33.715Z,12.03
2023-02-14T02:40:48.125Z,13.23
2023-02-14T02:43:55.582Z,12.33
2023-02-14T02:47:05.342Z,13.37
2023-02-14T02:50:37.729Z,13.83
2023-02-14T02:53:46.016Z,12.20
2023-02-14T02:56:53.431Z,12.57
2023-02-14T02:59:57.233Z,12.77
2023-02-14T03:03:23.214Z,14.00
2023-02-14T03:06:25.812Z,12.83
2023-02-14T03:09:56.714Z,13.80
2023-02-14T03:13:27.275Z,11.80
2023-02-14T03:16:35.599Z,13.13
2023-02-14T03:20:01.730Z,13.73
2023-02-14T03:23:10.106Z,12.63
2023-02-14T03:26:17.396Z,12.23
2023-02-14T03:29:26.855Z,12.30
2023-02-14T03:32:35.519Z,13.67
2023-02-14T03:35:41.610Z,12.97
2023-02-14T03:38:46.393Z,12.37
2023-02-14T03:41:53.009Z,13.30
2023-02-14T03:44:56.649Z,13.63
2023-02-14T03:48:03.356Z,13.60
2023-02-14T03:51:08.333Z,14.60
2023-02-14T03:54:13.012Z,13.87
2023-02-14T03:57:20.858Z,14.47
2023-02-14T04:00:23.760Z,14.13
2023-02-14T04:03:27.287Z,13.10
2023-02-14T04:06:30.862Z,13.35
2023-02-14T04:09:33.462Z,12.93
2023-02-14T04:12:38.277Z,13.40
2023-02-14T04:15:41.075Z,13.03
2023-02-14T04:19:01.593Z,13.87
2023-02-14T04:22:05.223Z,15.10
2023-02-14T04:25:08.341Z,16.67
2023-02-14T04:28:12.433Z,14.65
2023-02-14T04:31:16.003Z,13.63
2023-02-14T04:34:18.701Z,14.38
2023-02-14T04:37:21.835Z,14.33
2023-02-14T04:40:24.418Z,12.90
2023-02-14T04:43:28.378Z,14.23
2023-02-14T04:46:30.984Z,13.13
2023-02-14T04:49:34.070Z,13.37
2023-02-14T04:52:36.591Z,13.57
2023-02-14T04:55:39.176Z,14.03
2023-02-14T04:58:43.220Z,14.33
2023-02-14T05:01:45.816Z,12.50
2023-02-14T05:04:49.838Z,13.67
2023-02-14T05:07:52.531Z,14.00
2023-02-14T05:10:55.954Z,13.63
2023-02-14T05:14:00.087Z,15.10
2023-02-14T05:17:02.746Z,14.17
2023-02-14T05:20:06.418Z,14.50
2023-02-14T05:23:13.558Z,13.23
2023-02-14T05:26:16.805Z,13.67
2023-02-14T05:29:21.046Z,13.13
2023-02-14T05:32:23.597Z,14.27
2023-02-14T05:35:26.241Z,13.63
2023-02-14T05:38:28.976Z,13.77
2023-02-14T05:41:31.588Z,12.87
2023-02-14T05:44:35.603Z,13.63
2023-02-14T05:47:38.349Z,13.53
2023-02-14T05:50:42.470Z,13.70
2023-02-14T05:53:45.071Z,13.43
2023-02-14T05:56:47.692Z,13.23
2023-02-14T05:59:51.655Z,14.57
2023-02-14T06:02:54.209Z,14.60
2023-02-14T06:05:56.826Z,14.00
2023-02-14T06:08:59.586Z,15.13
2023-02-14T06:12:02.155Z,13.50
2023-02-14T06:15:07.101Z,14.07
2023-02-14T06:18:09.657Z,15.07
2023-02-14T06:21:12.314Z,15.80
2023-02-14T06:24:15.061Z,15.53
2023-02-14T06:27:18.126Z,14.80
2023-02-14T06:30:22.190Z,15.20
2023-02-14T06:33:24.885Z,16.63
2023-02-14T06:36:27.789Z,14.60
2023-02-14T06:39:30.446Z,13.05
2023-02-14T06:42:33.377Z,14.63
2023-02-14T06:45:37.562Z,15.10
2023-02-14T06:48:40.316Z,15.73
2023-02-14T06:51:42.933Z,17.20
2023-02-14T06:54:45.735Z,15.17
2023-02-14T06:57:48.371Z,14.53
2023-02-14T07:00:52.506Z,14.73
2023-02-14T07:03:55.133Z,15.93
2023-02-14T07:06:57.997Z,15.20
2023-02-14T07:10:00.769Z,15.07
2023-02-14T07:13:03.387Z,14.53
2023-02-14T07:16:07.477Z,15.87
2023-02-14T07:19:10.075Z,15.40
2023-02-14T07:22:12.784Z,15.50
2023-02-14T07:25:15.468Z,13.57
2023-02-14T07:28:18.119Z,15.13
2023-02-14T07:31:23.647Z,13.83
2023-02-14T07:34:27.251Z,12.93
2023-02-14T07:37:30.057Z,14.43
2023-02-14T07:40:32.783Z,15.30
2023-02-14T07:43:35.369Z,20.83
2023-02-14T07:46:39.470Z,18.23
2023-02-14T07:49:42.250Z,14.20
2023-02-14T07:52:45.495Z,15.37
2023-02-14T07:55:50.067Z,13.80
2023-02-14T07:58:52.738Z,15.07
2023-02-14T08:01:56.788Z,13.37
2023-02-14T08:04:59.608Z,13.53
2023-02-14T08:08:02.370Z,12.97
2023-02-14T08:11:05.306Z,14.57
2023-02-14T08:14:07.898Z,14.00
2023-02-14T08:17:13.431Z,14.70
2023-02-14T08:20:16.153Z,14.70
2023-02-14T08:23:19.620Z,16.40
2023-02-14T08:26:22.328Z,16.00
2023-02-14T08:29:25.064Z,25.23
2023-02-14T08:32:29.372Z,29.33
2023-02-14T08:35:32.025Z,17.57
2023-02-14T08:38:34.821Z,19.77
2023-02-14T08:41:37.869Z,18.45
2023-02-14T08:44:40.453Z,19.20
2023-02-14T08:47:44.495Z,17.23
2023-02-14T08:50:47.085Z,17.63
2023-02-14T08:53:51.618Z,14.77
2023-02-14T08:56:54.201Z,14.80
2023-02-14T08:59:56.837Z,15.53
2023-02-14T09:03:01.413Z,14.70
2023-02-14T09:06:04.802Z,14.57
2023-02-14T09:09:07.809Z,15.15
2023-02-14T09:12:11.338Z,14.32
2023-02-14T09:15:14.105Z,13.77
2023-02-14T09:18:18.072Z,14.10
2023-02-14T09:24:24.953Z,12.37
2023-02-14T09:27:27.625Z,13.77
2023-02-14T09:30:30.457Z,13.90
2023-02-14T09:33:34.559Z,13.63
2023-02-14T09:36:54.778Z,13.27
2023-02-14T09:39:57.477Z,15.27
2023-02-14T09:43:05.007Z,13.10
2023-02-14T09:46:09.645Z,13.37
2023-02-14T09:49:15.509Z,13.50
2023-02-14T09:52:28.594Z,13.27
2023-02-14T09:55:37.252Z,13.83
2023-02-14T09:58:45.210Z,13.43
2023-02-14T10:01:50.908Z,12.43
2023-02-14T10:04:59.655Z,13.23
2023-02-14T10:08:09.391Z,12.17
2023-02-14T10:11:16.268Z,12.87
2023-02-14T10:14:21.296Z,13.20
2023-02-14T10:17:33.915Z,13.60
2023-02-14T10:20:41.280Z,12.47
2023-02-14T10:23:46.982Z,12.27
2023-02-14T10:26:51.513Z,11.93
2023-02-14T10:29:54.367Z,11.80
2023-02-14T10:33:03.370Z,12.25
2023-02-14T10:36:15.701Z,11.00
2023-02-14T10:39:29.869Z,12.60
2023-02-14T10:42:39.551Z,13.40
2023-02-14T10:45:46.680Z,12.50
2023-02-14T10:48:55.730Z,12.83
2023-02-14T10:52:04.264Z,12.60
2023-02-14T10:55:20.175Z,12.03
2023-02-14T10:58:35.600Z,13.63
2023-02-14T11:01:38.390Z,11.17
2023-02-14T11:04:42.205Z,12.82
2023-02-14T11:10:49.674Z,10.87
2023-02-14T11:13:52.395Z,12.45
2023-02-14T11:16:55.656Z,12.27
2023-02-14T11:19:59.641Z,12.27
2023-02-14T11:23:03.653Z,12.67
2023-02-14T11:26:10.354Z,12.70
2023-02-14T11:29:14.739Z,12.13
2023-02-14T11:32:22.649Z,11.80
2023-02-14T11:35:33.869Z,12.23
2023-02-14T11:38:40.026Z,11.57
2023-02-14T11:41:50.232Z,11.70
2023-02-14T11:44:58.481Z,12.43
2023-02-14T11:48:22.341Z,10.93
2023-02-14T11:51:33.283Z,12.77
2023-02-14T11:54:38.536Z,11.47
2023-02-14T11:57:41.302Z,11.27
2023-02-14T12:00:52.543Z,11.45
2023-02-14T12:03:56.938Z,10.57
2023-02-14T12:07:14.677Z,12.27
2023-02-14T12:10:22.915Z,10.77
2023-02-14T12:13:26.814Z,11.23
2023-02-14T12:16:32.848Z,10.17
2023-02-14T12:19:40.069Z,10.67
2023-02-14T12:22:46.864Z,11.20
2023-02-14T12:25:52.505Z,11.00
2023-02-14T12:28:59.603Z,11.00
2023-02-14T12:32:06.360Z,11.00
2023-02-14T12:35:16.545Z,11.03
2023-02-14T12:38:26.595Z,11.47
2023-02-14T12:41:39.543Z,11.70
2023-02-14T12:44:47.231Z,11.60
2023-02-14T12:47:55.188Z,10.87
2023-02-14T12:51:01.957Z,12.10
2023-02-14T12:54:18.347Z,11.87
2023-02-14T12:57:34.801Z,11.23
2023-02-14T13:00:45.959Z,11.63
2023-02-14T13:04:01.118Z,11.60
2023-02-14T13:07:09.805Z,10.70
2023-02-14T13:10:22.076Z,10.77
2023-02-14T13:13:34.635Z,10.50
2023-02-14T13:16:41.549Z,10.67
2023-02-14T13:19:48.698Z,10.37
2023-02-14T13:22:51.540Z,10.73
2023-02-14T13:25:59.136Z,10.07
2023-02-14T13:29:05.772Z,10.47
2023-02-14T13:32:13.073Z,10.67
2023-02-14T13:35:16.967Z,10.60
2023-02-14T13:38:20.058Z,11.70
2023-02-14T13:41:23.679Z,10.20
2023-02-14T13:44:48.058Z,11.53
2023-02-14T13:48:03.522Z,11.60
2023-02-14T13:51:07.868Z,11.37
2023-02-14T13:54:21.998Z,11.73
2023-02-14T13:57:31.517Z,11.20
2023-02-14T14:00:41.033Z,11.60
2023-02-14T14:03:58.391Z,11.93
2023-02-14T14:07:18.642Z,10.47
2023-02-14T14:10:45.006Z,10.80
2023-02-14T14:14:02.506Z,11.27
2023-02-14T14:17:25.978Z,11.17
2023-02-14T14:20:48.835Z,11.85
2023-02-14T14:24:04.548Z,11.97
2023-02-14T14:27:08.681Z,11.27
2023-02-14T14:30:19.347Z,11.47
2023-02-14T14:33:27.870Z,11.80
2023-02-14T14:36:30.487Z,12.03
2023-02-14T14:39:34.506Z,11.55
2023-02-14T14:42:38.072Z,11.83
2023-02-14T14:45:42.652Z,11.87
2023-02-14T14:48:49.648Z,12.70
2023-02-14T14:51:52.388Z,11.03
2023-02-14T14:54:55.057Z,12.90
2023-02-14T14:57:59.435Z,12.55
2023-02-14T15:01:02.632Z,11.73
2023-02-14T15:04:18.167Z,11.63
2023-02-14T15:07:25.832Z,11.53
2023-02-14T15:10:30.123Z,11.47
2023-02-14T15:13:50.416Z,12.00
2023-02-14T15:16:57.612Z,11.80
2023-02-14T15:20:04.462Z,12.67
2023-02-14T15:23:07.170Z,11.97
2023-02-14T15:26:12.684Z,11.88
2023-02-14T15:29:22.777Z,12.97
2023-02-14T15:32:26.295Z,12.67
2023-02-14T15:35:32.880Z,13.85
2023-02-14T15:38:37.879Z,13.37
2023-02-14T15:41:44.770Z,13.13
2023-02-14T15:44:47.529Z,12.63
2023-02-14T15:47:53.065Z,13.02
2023-02-14T15:50:59.845Z,12.67
2023-02-14T15:54:04.859Z,13.83
2023-02-14T15:57:08.945Z,14.30
2023-02-14T16:00:17.997Z,13.83
2023-02-14T16:03:22.935Z,12.80
2023-02-14T16:06:36.666Z,13.43
2023-02-14T16:09:39.320Z,12.77
2023-02-14T16:12:42.457Z,12.67
2023-02-14T16:15:58.151Z,13.60
2023-02-14T16:19:01.729Z,12.90
2023-02-14T16:22:07.074Z,12.68
2023-02-14T16:25:10.024Z,13.03
2023-02-14T16:28:12.679Z,13.20
2023-02-14T16:31:16.989Z,12.73
2023-02-14T16:34:20.262Z,13.17
2023-02-14T16:37:26.734Z,13.48
2023-02-14T16:40:30.098Z,12.03
2023-02-14T16:43:32.811Z,12.50
2023-02-14T16:46:37.140Z,11.80
2023-02-14T16:49:39.877Z,13.80
2023-02-14T16:52:44.778Z,14.30
2023-02-14T16:55:47.454Z,13.40
2023-02-14T16:58:50.207Z,12.40
2023-02-14T17:01:53.162Z,13.30
2023-02-14T17:04:55.937Z,13.30
2023-02-14T17:08:01.720Z,14.57
2023-02-14T17:11:04.521Z,13.93
2023-02-14T17:14:07.627Z,13.37
2023-02-14T17:17:10.594Z,13.60
2023-02-14T17:20:14.459Z,14.10
2023-02-14T17:23:20.262Z,14.20
2023-02-14T17:26:23.339Z,13.87
2023-02-14T17:29:26.142Z,16.30
2023-02-14T17:32:28.756Z,17.07
2023-02-14T17:35:31.511Z,17.30
2023-02-14T17:38:35.953Z,14.50
2023-02-14T17:41:38.556Z,16.93
2023-02-14T17:44:41.211Z,16.80
2023-02-14T17:47:45.214Z,15.83
2023-02-14T17:50:47.803Z,15.97
2023-02-14T17:53:52.166Z,16.37
2023-02-14T17:56:54.763Z,16.33
2023-02-14T17:59:58.431Z,16.03
2023-02-14T18:03:01.211Z,15.05
2023-02-14T18:06:04.531Z,15.70
2023-02-14T18:09:09.141Z,15.13
2023-02-14T18:12:14.933Z,15.97
2023-02-14T18:15:18.386Z,15.83
2023-02-14T18:18:21.421Z,16.30
2023-02-14T18:21:25.461Z,16.95
2023-02-14T18:24:29.443Z,18.13
2023-02-14T18:27:32.429Z,17.97
2023-02-14T18:30:35.062Z,16.20
2023-02-14T18:33:38.493Z,17.03
2023-02-14T18:36:42.195Z,16.88
2023-02-14T18:39:46.792Z,15.23
2023-02-14T18:42:49.355Z,16.33
2023-02-14T18:45:51.998Z,15.93
2023-02-14T18:48:56.100Z,17.27
2023-02-14T18:51:59.748Z,16.23
2023-02-14T18:55:03.904Z,16.98
2023-02-14T18:58:07.840Z,16.27
2023-02-14T19:01:12.130Z,16.67
2023-02-14T19:04:16.653Z,16.53
2023-02-14T19:07:19.793Z,17.57
2023-02-14T19:10:24.505Z,18.08
2023-02-14T19:13:29.374Z,16.67
2023-02-14T19:16:34.250Z,15.93
2023-02-14T19:19:36.880Z,21.37
2023-02-14T19:22:39.559Z,19.23
2023-02-14T19:25:43.692Z,17.30
2023-02-14T19:28:48.228Z,15.43
2023-02-14T19:31:56.909Z,15.97
2023-02-14T19:34:59.680Z,16.37
2023-02-14T19:38:03.474Z,15.80
2023-02-14T19:44:13.899Z,15.73
2023-02-14T19:47:29.032Z,15.20
2023-02-14T19:50:36.556Z,16.17
2023-02-14T19:53:39.206Z,16.43
2023-02-14T19:56:45.406Z,15.93
2023-02-14T19:59:48.103Z,17.13
2023-02-14T20:02:51.107Z,17.93
2023-02-14T20:05:53.888Z,16.17
2023-02-14T20:09:06.149Z,16.77
2023-02-14T20:12:26.263Z,17.40
2023-02-14T20:15:33.539Z,15.70
2023-02-14T20:18:37.540Z,16.53
2023-02-14T20:21:42.025Z,15.43
2023-02-14T20:24:44.648Z,16.43
2023-02-14T20:27:51.316Z,15.50
2023-02-14T20:30:54.466Z,16.93
2023-02-14T20:33:57.610Z,16.17
2023-02-14T20:37:01.150Z,16.00
2023-02-14T20:40:04.526Z,16.92
2023-02-14T20:43:08.531Z,18.10
2023-02-14T20:46:12.239Z,17.20
2023-02-14T20:49:16.186Z,18.10
2023-02-14T20:52:19.488Z,16.57
2023-02-14T20:55:22.142Z,17.67
2023-02-14T20:58:26.128Z,14.93
2023-02-14T21:01:29.324Z,16.53
2023-02-14T21:04:32.160Z,17.17
2023-02-14T21:07:34.709Z,16.03
2023-02-14T21:10:44.327Z,15.47
2023-02-14T21:13:48.237Z,15.60
2023-02-14T21:20:17.093Z,15.00
2023-02-14T21:23:20.104Z,16.27
2023-02-14T21:26:22.739Z,15.13
2023-02-14T21:29:27.272Z,16.20
2023-02-14T21:32:30.228Z,15.67
2023-02-14T21:35:32.788Z,16.67
2023-02-14T21:38:35.596Z,15.43
2023-02-14T21:41:38.482Z,17.10
2023-02-14T21:45:00.186Z,16.13
2023-02-14T21:48:20.523Z,15.13
2023-02-14T21:51:23.742Z,16.20
2023-02-14T21:54:29.116Z,15.30
2023-02-14T21:57:34.097Z,14.83
2023-02-14T22:00:48.109Z,17.07
2023-02-14T22:03:52.386Z,15.73
2023-02-14T22:06:57.165Z,15.33
2023-02-14T22:10:00.075Z,15.67
2023-02-14T22:13:02.839Z,16.10
2023-02-14T22:16:12.865Z,17.00
2023-02-14T22:19:17.031Z,16.23
2023-02-14T22:22:19.688Z,17.87
2023-02-14T22:25:23.067Z,16.17
2023-02-14T22:28:25.840Z,15.35
2023-02-14T22:31:39.655Z,18.13
2023-02-14T22:34:42.418Z,16.95
2023-02-14T22:37:45.072Z,18.23
2023-02-14T22:40:47.669Z,17.00
2023-02-14T22:43:50.746Z,17.13
2023-02-14T22:46:54.791Z,17.00
2023-02-14T22:49:59.354Z,17.13
2023-02-14T22:53:03.237Z,17.03
2023-02-14T22:56:13.561Z,16.33
2023-02-14T22:59:18.580Z,15.60
2023-02-14T23:02:22.595Z,15.97
2023-02-14T23:05:25.540Z,16.50
2023-02-14T23:08:28.325Z,15.52
2023-02-14T23:11:32.220Z,15.57
2023-02-14T23:18:14.525Z,15.10
2023-02-14T23:21:35.072Z,15.73
2023-02-14T23:24:37.965Z,14.90
2023-02-14T23:27:42.891Z,15.40
2023-02-14T23:30:45.893Z,13.60
2023-02-14T23:33:52.571Z,14.13
2023-02-14T23:36:55.344Z,14.17
2023-02-14T23:39:58.020Z,13.90
2023-02-14T23:43:00.763Z,14.67
2023-02-14T23:46:03.787Z,15.00
2023-02-14T23:49:09.408Z,13.88
2023-02-14T23:52:13.251Z,14.13
2023-02-14T23:58:18.473Z,12.53
